Allport, PA (16821)

4:39 AM EDT on September 05, 2015 (GMT -0400)
South Philipsburg | | Change Station
CLOSE
Current Station
Personal Weather Station
Location: Philipsburg, PA
Elevation: 1444 ft
Nearby Weather Stations

Elev 1444 ft 40.89 °N, 78.22 °W | Updated 4 minutes ago

Overcast
Overcast
67.1 °F
Feels Like 67.1 °F
N
0.0
Wind Variable Wind from SSW
Gusts 0.0 mph

Today
High -- | Low -- °F
--% Chance of Precip.
Yesterday
High -- | Low -- °F
Precip. -- in
6:43 AM 7:39 PM
Waning Gibbous, 51% visible
Pressure 30.17 in
Visibility 7.0 miles
Clouds Overcast 2200 ft
Dew Point 67 °F
Humidity 99%
Rainfall 0.00 in
Snow Depth Not available.
UV 0 out of 12
Pollen 8.50 out of 12
Air Quality Not available.
Flu Activity Not available.
METAR KFIG 050754Z AUTO 08004KT 7SM OVC022 21/18 A3021 RMK AO2 SLP217 T02060183
Pressure 30.17 in
Visibility 7.0 miles
Clouds Overcast 2200 ft
Dew Point 67 °F
Humidity 99%
Rainfall 0.00 in
Snow Depth Not available.
UV 0 out of 12
Pollen 8.50 out of 12
Air Quality Not available.
Flu Activity Not available.
METAR KFIG 050754Z AUTO 08004KT 7SM OVC022 21/18 A3021 RMK AO2 SLP217 T02060183

10-Day Weather Forecast

×

Almanac

Astronomy

Sep. 05, 2015 Rise Set
Actual Time
Civil Twilight
Nautical Twilight
Astronomical Twilight
Moon
Length of Visible Light
Length of Day
Tomorrow will be .
, % of the Moon is Illuminated

Today's Extremes

State Highs State Lows

Community

WunderPhotos

Upload Photos

1,852,441 photos uploaded!

WunderBlogs® & News

Nearby

Air Quality

  Air Quality AQ Index Pollutant
Not available.

Snow Depth

Station Depth Elevation

Earthquake Activity

City Distance Mag. Time & Date
Minimum magnitude displayed is 2.5.

Coastal Water Temperatures

Place Temperature

Stations

Nearby Weather Stations

Station Location Temp. Windchill Dew Point Humidity Wind Precip. Elev Updated Type